createdAt,value
2018-07-19T00:00:04.675Z,5.20
2018-07-19T00:02:33.712Z,7.17
2018-07-19T00:05:02.707Z,4.67
2018-07-19T00:07:31.887Z,4.73
2018-07-19T00:10:00.880Z,5.00
2018-07-19T00:12:29.865Z,6.27
2018-07-19T00:14:58.824Z,5.90
2018-07-19T00:17:27.842Z,5.83
2018-07-19T00:19:56.811Z,7.30
2018-07-19T00:22:25.752Z,3.77
2018-07-19T00:24:54.759Z,4.40
2018-07-19T00:27:24.028Z,7.40
2018-07-19T00:29:52.982Z,4.63
2018-07-19T00:32:21.951Z,5.90
2018-07-19T00:34:50.972Z,7.40
2018-07-19T00:37:19.959Z,7.10
2018-07-19T00:39:55.561Z,6.83
2018-07-19T00:42:24.570Z,7.33
2018-07-19T00:44:53.580Z,6.60
2018-07-19T00:47:22.563Z,6.53
2018-07-19T00:49:51.532Z,9.07
2018-07-19T00:52:20.496Z,6.20
2018-07-19T00:54:49.609Z,5.77
2018-07-19T00:57:18.661Z,6.20
2018-07-19T00:59:54.307Z,6.50
2018-07-19T01:02:23.250Z,8.33
2018-07-19T01:04:52.191Z,9.73
2018-07-19T01:07:21.134Z,5.07
2018-07-19T01:09:50.207Z,5.77
2018-07-19T01:12:19.175Z,6.37
2018-07-19T01:14:48.180Z,6.13
2018-07-19T01:17:17.155Z,7.47
2018-07-19T01:19:46.127Z,6.03
2018-07-19T01:22:15.116Z,8.50
2018-07-19T01:24:44.113Z,4.50
2018-07-19T01:27:13.042Z,8.10
2018-07-19T01:29:42.026Z,6.23
2018-07-19T01:32:11.086Z,10.50
2018-07-19T01:34:40.026Z,8.03
2018-07-19T01:37:09.008Z,8.13
2018-07-19T01:39:37.991Z,7.40
2018-07-19T01:42:19.295Z,6.63
2018-07-19T01:44:48.344Z,6.87
2018-07-19T01:47:17.355Z,6.30
2018-07-19T01:49:46.700Z,5.90
2018-07-19T01:52:15.594Z,5.40
2018-07-19T01:54:44.582Z,6.83
2018-07-19T01:57:14.825Z,6.77
2018-07-19T01:59:44.304Z,7.40
2018-07-19T02:02:13.520Z,6.23
2018-07-19T02:04:42.686Z,6.20
2018-07-19T02:07:11.658Z,8.23
2018-07-19T02:09:40.684Z,7.10
2018-07-19T02:12:09.657Z,7.67
2018-07-19T02:14:38.693Z,6.10
2018-07-19T02:17:07.664Z,6.90
2018-07-19T02:19:36.631Z,6.87
2018-07-19T02:22:05.548Z,6.70
2018-07-19T02:24:34.504Z,7.63
2018-07-19T02:27:03.523Z,7.10
2018-07-19T02:29:38.595Z,8.30
2018-07-19T02:32:13.523Z,9.90
2018-07-19T02:34:42.579Z,6.10
2018-07-19T02:37:11.555Z,6.70
2018-07-19T02:39:40.514Z,8.77
2018-07-19T02:42:09.474Z,7.53
2018-07-19T02:44:38.428Z,7.80
2018-07-19T02:47:07.393Z,8.37
2018-07-19T02:49:36.492Z,9.37
2018-07-19T02:52:05.592Z,9.70
2018-07-19T02:54:34.580Z,9.30
2018-07-19T02:57:03.478Z,7.90
2018-07-19T02:59:32.312Z,6.70
2018-07-19T03:02:01.364Z,6.27
2018-07-19T03:04:30.311Z,7.73
2018-07-19T03:06:59.274Z,7.83
2018-07-19T03:09:28.299Z,8.30
2018-07-19T03:11:57.267Z,7.00
2018-07-19T03:14:26.241Z,8.70
2018-07-19T03:16:55.235Z,9.27
2018-07-19T03:19:24.731Z,7.13
2018-07-19T03:21:53.720Z,7.03
2018-07-19T03:24:22.735Z,9.40
2018-07-19T03:26:51.699Z,8.20
2018-07-19T03:29:20.760Z,9.07
2018-07-19T03:31:49.875Z,8.07
2018-07-19T03:34:18.820Z,7.33
2018-07-19T03:36:47.795Z,7.57
2018-07-19T03:39:16.776Z,8.00
2018-07-19T03:41:45.811Z,9.07
2018-07-19T03:44:14.742Z,6.83
2018-07-19T03:46:43.769Z,8.30
2018-07-19T03:49:12.920Z,8.77
2018-07-19T03:51:41.904Z,7.40
2018-07-19T03:54:10.907Z,8.60
2018-07-19T03:56:39.874Z,10.77
2018-07-19T03:59:08.848Z,9.33
2018-07-19T04:01:37.895Z,10.90
2018-07-19T04:04:06.923Z,8.77
2018-07-19T04:06:35.938Z,10.60
2018-07-19T04:09:06.404Z,9.90
2018-07-19T04:11:35.385Z,8.70
2018-07-19T04:14:04.818Z,8.20
2018-07-19T04:16:33.826Z,9.03
2018-07-19T04:19:02.861Z,7.53
2018-07-19T04:21:31.863Z,10.20
2018-07-19T04:24:00.890Z,8.40
2018-07-19T04:26:29.895Z,8.27
2018-07-19T04:28:58.834Z,7.50
2018-07-19T04:31:27.791Z,9.80
2018-07-19T04:33:56.781Z,9.67
2018-07-19T04:36:25.810Z,9.57
2018-07-19T04:38:54.764Z,9.70
2018-07-19T04:41:23.867Z,10.30
2018-07-19T04:43:52.870Z,10.17
2018-07-19T04:46:21.832Z,9.43
2018-07-19T04:48:50.842Z,9.43
2018-07-19T04:51:19.839Z,12.70
2018-07-19T04:53:48.885Z,10.73
2018-07-19T04:56:17.855Z,7.80
2018-07-19T04:58:46.851Z,9.07
2018-07-19T05:01:15.879Z,9.10
2018-07-19T05:03:44.852Z,8.33
2018-07-19T05:06:13.939Z,8.83
2018-07-19T05:08:42.911Z,9.50
2018-07-19T05:11:11.895Z,9.70
2018-07-19T05:13:40.956Z,9.57
2018-07-19T05:16:10.004Z,8.10
2018-07-19T05:18:38.795Z,11.20
2018-07-19T05:21:07.702Z,10.07
2018-07-19T05:23:36.583Z,8.47
2018-07-19T05:26:05.463Z,10.40
2018-07-19T05:28:34.414Z,8.33
2018-07-19T05:31:03.634Z,8.13
2018-07-19T05:33:32.667Z,8.17
2018-07-19T05:36:01.696Z,9.33
2018-07-19T05:38:30.729Z,9.77
2018-07-19T05:40:59.731Z,8.23
2018-07-19T05:43:28.768Z,10.57
2018-07-19T05:45:57.747Z,8.83
2018-07-19T05:48:26.696Z,8.90
2018-07-19T05:50:55.643Z,7.87
2018-07-19T05:53:24.641Z,9.50
2018-07-19T05:55:53.638Z,10.30
2018-07-19T05:58:22.680Z,10.83
2018-07-19T06:00:51.378Z,8.53
2018-07-19T06:03:20.284Z,8.83
2018-07-19T06:05:49.816Z,9.23
2018-07-19T06:08:18.795Z,18.27
2018-07-19T06:10:47.755Z,9.13
2018-07-19T06:13:16.763Z,10.27
2018-07-19T06:15:45.718Z,11.07
2018-07-19T06:18:14.691Z,9.83
2018-07-19T06:20:43.728Z,7.87
2018-07-19T06:23:12.844Z,10.37
2018-07-19T06:25:41.867Z,9.17
2018-07-19T06:28:10.883Z,8.13
2018-07-19T06:30:40.111Z,8.93
2018-07-19T06:33:09.664Z,10.93
2018-07-19T06:35:38.683Z,11.37
2018-07-19T06:38:07.650Z,9.80
2018-07-19T06:40:36.624Z,6.67
2018-07-19T06:43:05.793Z,9.17
2018-07-19T06:45:34.923Z,8.83
2018-07-19T06:48:03.917Z,9.50
2018-07-19T06:50:32.938Z,10.43
2018-07-19T06:53:01.884Z,11.40
2018-07-19T06:55:30.837Z,9.57
2018-07-19T06:57:59.859Z,10.60
2018-07-19T07:00:29.720Z,8.40
2018-07-19T07:02:58.740Z,6.37
2018-07-19T07:05:27.668Z,9.00
2018-07-19T07:07:56.638Z,7.97
2018-07-19T07:10:25.598Z,9.30
2018-07-19T07:12:54.527Z,7.80
2018-07-19T07:15:23.493Z,7.33
2018-07-19T07:17:52.452Z,7.50
2018-07-19T07:20:21.495Z,9.20
2018-07-19T07:22:50.964Z,9.30
2018-07-19T07:25:20.340Z,6.60
2018-07-19T07:27:49.292Z,9.63
2018-07-19T07:30:18.267Z,7.50
2018-07-19T07:32:47.256Z,7.87
2018-07-19T07:35:16.215Z,6.43
2018-07-19T07:37:45.190Z,7.73
2018-07-19T07:40:14.174Z,9.30
2018-07-19T07:42:43.195Z,6.23
2018-07-19T07:45:12.172Z,7.67
2018-07-19T07:47:41.211Z,6.57
2018-07-19T07:50:09.989Z,9.10
2018-07-19T07:52:38.777Z,6.77
2018-07-19T07:55:07.746Z,7.90
2018-07-19T07:57:36.672Z,9.20
2018-07-19T08:00:05.839Z,7.57
2018-07-19T08:02:34.799Z,11.70
2018-07-19T08:05:03.827Z,9.00
2018-07-19T08:07:32.791Z,9.97
2018-07-19T08:10:01.768Z,7.90
2018-07-19T08:12:30.756Z,10.13
2018-07-19T08:14:59.748Z,11.50
2018-07-19T08:17:28.960Z,8.77
2018-07-19T08:19:57.991Z,10.93
2018-07-19T08:22:26.951Z,10.73
2018-07-19T08:24:56.051Z,8.80
2018-07-19T08:27:25.020Z,9.50
2018-07-19T08:29:54.006Z,8.87
2018-07-19T08:32:23.017Z,7.60
2018-07-19T08:34:51.947Z,6.00
2018-07-19T08:37:20.905Z,6.73
2018-07-19T08:39:49.852Z,9.30
2018-07-19T08:42:18.808Z,7.60
2018-07-19T08:44:47.762Z,6.97
2018-07-19T08:47:16.556Z,5.93
2018-07-19T08:49:46.819Z,12.43
2018-07-19T08:52:16.516Z,8.17
2018-07-19T08:54:45.452Z,7.20
2018-07-19T08:57:14.896Z,5.67
2018-07-19T08:59:43.907Z,7.50
2018-07-19T09:02:12.918Z,10.43
2018-07-19T09:04:48.532Z,8.20
2018-07-19T09:07:17.477Z,9.43
2018-07-19T09:09:46.488Z,8.83
2018-07-19T09:12:15.431Z,8.90
2018-07-19T09:14:44.378Z,9.00
2018-07-19T09:17:13.375Z,10.67
2018-07-19T09:19:42.340Z,10.20
2018-07-19T09:22:11.236Z,8.73
2018-07-19T09:24:40.202Z,10.53
2018-07-19T09:27:09.244Z,9.07
2018-07-19T09:29:38.042Z,10.23
2018-07-19T09:32:06.911Z,12.87
2018-07-19T09:34:35.854Z,11.20
2018-07-19T09:37:04.965Z,10.20
2018-07-19T09:39:33.967Z,8.70
2018-07-19T09:42:02.908Z,12.63
2018-07-19T09:44:31.997Z,10.00
2018-07-19T09:47:00.969Z,8.07
2018-07-19T09:49:30.172Z,7.63
2018-07-19T09:51:59.172Z,13.43
2018-07-19T09:54:39.692Z,8.93
2018-07-19T09:57:08.629Z,11.03
2018-07-19T09:59:37.563Z,11.30
2018-07-19T10:02:06.639Z,13.37
2018-07-19T10:04:35.623Z,10.90
2018-07-19T10:07:04.775Z,9.30
2018-07-19T10:09:33.771Z,7.00
2018-07-19T10:12:03.488Z,9.30
2018-07-19T10:14:32.466Z,11.00
2018-07-19T10:17:01.519Z,6.63
2018-07-19T10:19:30.554Z,7.97
2018-07-19T10:21:59.575Z,7.20
2018-07-19T10:24:28.531Z,7.40
2018-07-19T10:26:57.551Z,11.87
2018-07-19T10:29:26.850Z,7.77
2018-07-19T10:31:56.051Z,9.80
2018-07-19T10:34:25.057Z,8.00
2018-07-19T10:36:54.237Z,10.13
2018-07-19T10:39:23.232Z,12.33
2018-07-19T10:41:52.371Z,13.20
2018-07-19T10:44:21.372Z,11.43
2018-07-19T10:46:50.316Z,11.90
2018-07-19T10:49:19.381Z,7.63
2018-07-19T10:51:48.375Z,6.67
2018-07-19T10:54:17.283Z,11.57
2018-07-19T10:56:46.264Z,10.73
2018-07-19T10:59:15.266Z,8.83
2018-07-19T11:01:44.295Z,9.50
2018-07-19T11:04:13.345Z,10.80
2018-07-19T11:06:42.295Z,10.10
2018-07-19T11:09:11.262Z,11.20
2018-07-19T11:11:40.234Z,7.63
2018-07-19T11:14:11.138Z,9.37
2018-07-19T11:16:40.227Z,7.03
2018-07-19T11:19:09.259Z,6.23
2018-07-19T11:21:38.178Z,14.13
2018-07-19T11:24:07.140Z,9.07
2018-07-19T11:26:38.417Z,7.97
2018-07-19T11:29:07.532Z,7.97
2018-07-19T11:31:36.543Z,8.67
2018-07-19T11:34:05.536Z,5.37
2018-07-19T11:36:34.487Z,7.83
2018-07-19T11:39:04.239Z,6.90
2018-07-19T11:41:33.628Z,14.37
2018-07-19T11:44:02.545Z,10.10
2018-07-19T11:46:31.478Z,13.80
2018-07-19T11:49:00.438Z,10.67
2018-07-19T11:51:29.399Z,8.87
2018-07-19T11:53:58.338Z,9.80
2018-07-19T11:56:27.279Z,12.20
2018-07-19T11:58:56.235Z,8.67
2018-07-19T12:01:25.143Z,7.90
2018-07-19T12:03:54.285Z,9.47
2018-07-19T12:06:23.224Z,5.23
2018-07-19T12:08:52.163Z,8.37
2018-07-19T12:11:21.120Z,8.03
2018-07-19T12:13:50.143Z,8.33
2018-07-19T12:16:19.132Z,11.90
2018-07-19T12:18:48.071Z,9.40
2018-07-19T12:21:17.100Z,11.40
2018-07-19T12:23:46.111Z,12.13
2018-07-19T12:26:15.134Z,11.37
2018-07-19T12:31:19.373Z,11.03
2018-07-19T12:33:48.340Z,8.03
2018-07-19T12:36:17.280Z,10.17
2018-07-19T12:38:46.281Z,13.80
2018-07-19T12:41:15.245Z,11.93
2018-07-19T12:43:44.187Z,13.17
2018-07-19T12:46:13.160Z,13.13
2018-07-19T12:48:42.103Z,13.07
2018-07-19T12:51:11.108Z,10.97
2018-07-19T12:53:40.115Z,10.90
2018-07-19T12:56:09.085Z,12.57
2018-07-19T12:58:38.070Z,15.17
2018-07-19T13:01:07.575Z,11.67
2018-07-19T13:03:36.593Z,12.07
2018-07-19T13:06:05.563Z,10.40
2018-07-19T13:08:34.540Z,12.67
2018-07-19T13:11:03.600Z,8.03
2018-07-19T13:13:33.264Z,14.73
2018-07-19T13:16:02.503Z,8.37
2018-07-19T13:18:31.507Z,6.33
2018-07-19T13:21:00.617Z,5.30
2018-07-19T13:23:29.597Z,5.53
2018-07-19T13:25:58.596Z,7.80
2018-07-19T13:28:27.567Z,10.10
2018-07-19T13:30:56.595Z,8.20
2018-07-19T13:33:25.590Z,9.97
2018-07-19T13:35:54.883Z,8.73
2018-07-19T13:38:23.853Z,6.83
2018-07-19T13:40:53.004Z,9.80
2018-07-19T13:43:21.952Z,11.23
2018-07-19T13:45:50.903Z,16.80
2018-07-19T13:48:19.880Z,12.10
2018-07-19T13:50:48.862Z,12.43
2018-07-19T13:53:38.939Z,9.60
2018-07-19T13:56:08.657Z,10.17
2018-07-19T13:58:38.283Z,12.47
2018-07-19T14:01:07.285Z,6.97
2018-07-19T14:03:36.530Z,10.23
2018-07-19T14:06:07.196Z,8.60
2018-07-19T14:08:36.443Z,8.17
2018-07-19T14:11:05.412Z,15.80
2018-07-19T14:13:34.361Z,8.87
2018-07-19T14:16:03.355Z,10.33
2018-07-19T14:18:32.309Z,12.03
2018-07-19T14:21:01.267Z,10.40
2018-07-19T14:23:30.215Z,9.57
2018-07-19T14:25:59.151Z,7.40
2018-07-19T14:28:28.131Z,8.00
2018-07-19T14:30:57.058Z,11.63
2018-07-19T14:33:26.039Z,12.73
2018-07-19T14:35:55.031Z,8.90
2018-07-19T14:38:23.973Z,8.33
2018-07-19T14:40:52.952Z,8.13
2018-07-19T14:43:22.903Z,8.17
2018-07-19T14:45:51.887Z,15.00
2018-07-19T14:48:20.849Z,10.43
2018-07-19T14:50:49.984Z,14.10
2018-07-19T14:53:19.005Z,13.10
2018-07-19T14:55:48.854Z,10.87
2018-07-19T14:58:17.851Z,12.20
2018-07-19T15:00:46.836Z,7.97
2018-07-19T15:03:15.771Z,11.77
2018-07-19T15:05:44.810Z,13.33
2018-07-19T15:08:13.800Z,12.83
2018-07-19T15:10:42.787Z,10.90
2018-07-19T15:13:11.758Z,17.77
2018-07-19T15:15:40.712Z,16.77
2018-07-19T15:18:09.698Z,14.77
2018-07-19T15:20:38.668Z,15.60
2018-07-19T15:23:07.707Z,18.37
2018-07-19T15:25:36.681Z,13.30
2018-07-19T15:28:05.820Z,18.83
2018-07-19T15:30:34.832Z,13.63
2018-07-19T15:33:03.807Z,21.97
2018-07-19T15:35:32.784Z,16.67
2018-07-19T15:38:01.836Z,10.60
2018-07-19T15:40:30.834Z,17.93
2018-07-19T15:42:59.806Z,15.90
2018-07-19T15:45:28.812Z,22.30
2018-07-19T15:47:57.940Z,15.27
2018-07-19T15:50:26.882Z,18.87
2018-07-19T15:52:55.817Z,18.63
2018-07-19T15:55:24.827Z,22.27
2018-07-19T15:57:54.276Z,19.07
2018-07-19T16:00:23.256Z,15.50
2018-07-19T16:02:52.196Z,18.37
2018-07-19T16:05:21.155Z,27.40
2018-07-19T16:07:50.194Z,19.57
2018-07-19T16:10:19.399Z,24.10
2018-07-19T16:12:48.375Z,26.37
2018-07-19T16:15:17.332Z,18.60
2018-07-19T16:17:46.333Z,18.77
2018-07-19T16:20:15.295Z,16.80
2018-07-19T16:22:44.287Z,17.17
2018-07-19T16:25:13.247Z,14.27
2018-07-19T16:27:42.230Z,18.07
2018-07-19T16:30:11.168Z,13.40
2018-07-19T16:32:40.360Z,15.80
2018-07-19T16:35:09.326Z,10.70
2018-07-19T16:37:38.306Z,10.17
2018-07-19T16:40:07.300Z,10.50
2018-07-19T16:42:36.425Z,15.20
2018-07-19T16:45:05.479Z,10.80
2018-07-19T16:47:34.806Z,16.33
2018-07-19T16:50:04.023Z,17.80
2018-07-19T16:52:33.295Z,15.20
2018-07-19T16:55:02.260Z,19.70
2018-07-19T16:57:31.216Z,21.17
2018-07-19T17:00:00.231Z,11.67
2018-07-19T17:02:29.205Z,11.17
2018-07-19T17:04:58.252Z,11.50
2018-07-19T17:07:27.222Z,8.93
2018-07-19T17:09:56.171Z,11.10
2018-07-19T17:12:25.178Z,10.40
2018-07-19T17:14:54.484Z,13.03
2018-07-19T17:17:23.542Z,11.90
2018-07-19T17:19:52.498Z,14.60
2018-07-19T17:22:21.440Z,17.10
2018-07-19T17:24:50.400Z,17.67
2018-07-19T17:27:19.214Z,18.23
2018-07-19T17:29:48.060Z,13.40
2018-07-19T17:32:17.053Z,14.80
2018-07-19T17:34:45.987Z,19.30
2018-07-19T17:37:14.762Z,14.07
2018-07-19T17:39:43.604Z,12.87
2018-07-19T17:42:12.540Z,17.50
2018-07-19T17:44:42.547Z,15.60
2018-07-19T17:47:11.524Z,19.27
2018-07-19T17:49:40.524Z,11.20
2018-07-19T17:52:09.483Z,10.77
2018-07-19T17:54:38.627Z,8.27
2018-07-19T17:57:07.850Z,7.77
2018-07-19T17:59:36.864Z,7.70
2018-07-19T18:02:05.796Z,8.77
2018-07-19T18:04:34.852Z,7.60
2018-07-19T18:07:03.835Z,11.20
2018-07-19T18:09:32.787Z,9.53
2018-07-19T18:12:01.979Z,9.03
2018-07-19T18:14:30.923Z,8.90
2018-07-19T18:16:59.943Z,9.07
2018-07-19T18:19:28.902Z,4.90
2018-07-19T18:21:58.226Z,4.00
2018-07-19T18:24:27.361Z,5.90
2018-07-19T18:26:56.478Z,4.70
2018-07-19T18:29:25.504Z,4.40
2018-07-19T18:31:54.424Z,8.00
2018-07-19T18:34:23.419Z,5.63
2018-07-19T18:36:52.359Z,5.30
2018-07-19T18:39:21.287Z,9.70
2018-07-19T18:41:50.288Z,8.10
2018-07-19T18:44:19.226Z,7.20
2018-07-19T18:46:48.267Z,6.63
2018-07-19T18:49:17.208Z,7.27
2018-07-19T18:51:46.591Z,8.10
2018-07-19T18:54:15.446Z,7.63
2018-07-19T18:56:44.424Z,7.60
2018-07-19T18:59:13.386Z,7.33
2018-07-19T19:01:42.406Z,6.80
2018-07-19T19:04:11.354Z,5.27
2018-07-19T19:06:40.163Z,6.90
2018-07-19T19:09:10.276Z,4.97
2018-07-19T19:11:39.415Z,5.37
2018-07-19T19:14:08.460Z,6.20
2018-07-19T19:16:37.455Z,5.20
2018-07-19T19:19:06.479Z,10.20
2018-07-19T19:21:36.533Z,7.50
2018-07-19T19:24:05.755Z,5.23
2018-07-19T19:26:34.707Z,7.40
2018-07-19T19:29:03.818Z,5.70
2018-07-19T19:31:32.819Z,7.97
2018-07-19T19:34:02.213Z,6.27
2018-07-19T19:36:31.207Z,5.60
2018-07-19T19:39:00.179Z,8.80
2018-07-19T19:41:29.411Z,5.93
2018-07-19T19:43:58.339Z,7.90
2018-07-19T19:46:27.580Z,6.30
2018-07-19T19:48:58.807Z,11.80
2018-07-19T19:51:27.759Z,7.50
2018-07-19T19:53:56.736Z,6.50
2018-07-19T19:56:25.759Z,5.87
2018-07-19T19:58:54.727Z,7.20
2018-07-19T20:01:23.884Z,6.10
2018-07-19T20:03:52.919Z,11.47
2018-07-19T20:06:21.992Z,6.10
2018-07-19T20:08:52.548Z,5.80
2018-07-19T20:11:21.632Z,11.77
2018-07-19T20:13:50.577Z,6.67
2018-07-19T20:16:20.299Z,7.60
2018-07-19T20:18:49.807Z,6.47
2018-07-19T20:21:19.480Z,5.97
2018-07-19T20:23:48.283Z,5.03
2018-07-19T20:26:17.127Z,7.53
2018-07-19T20:28:46.736Z,5.90
2018-07-19T20:31:15.671Z,5.47
2018-07-19T20:33:44.830Z,7.20
2018-07-19T20:36:13.821Z,6.10
2018-07-19T20:38:42.814Z,5.80
2018-07-19T20:41:11.949Z,5.80
2018-07-19T20:43:41.004Z,6.40
2018-07-19T20:46:09.923Z,6.77
2018-07-19T20:48:38.861Z,6.80
2018-07-19T20:51:07.842Z,7.13
2018-07-19T20:53:36.867Z,8.00
2018-07-19T20:56:05.984Z,7.07
2018-07-19T20:58:34.997Z,6.10
2018-07-19T21:01:03.693Z,8.17
2018-07-19T21:03:32.545Z,7.70
2018-07-19T21:06:01.405Z,7.20
2018-07-19T21:08:30.239Z,9.53
2018-07-19T21:10:59.250Z,6.10
2018-07-19T21:13:28.195Z,5.63
2018-07-19T21:15:57.199Z,7.70
2018-07-19T21:18:26.284Z,5.87
2018-07-19T21:20:55.331Z,5.50
2018-07-19T21:23:24.276Z,5.70
2018-07-19T21:25:53.234Z,7.93
2018-07-19T21:28:22.574Z,5.73
2018-07-19T21:30:51.563Z,5.80
2018-07-19T21:33:20.523Z,7.03
2018-07-19T21:35:49.458Z,8.50
2018-07-19T21:38:18.406Z,5.37
2018-07-19T21:40:47.331Z,6.17
2018-07-19T21:43:16.324Z,7.53
2018-07-19T21:45:45.229Z,4.87
2018-07-19T21:48:14.151Z,6.47
2018-07-19T21:50:43.155Z,9.57
2018-07-19T21:53:12.178Z,8.37
2018-07-19T21:55:41.135Z,6.23
2018-07-19T21:58:10.704Z,6.90
2018-07-19T22:00:45.218Z,6.07
2018-07-19T22:03:14.372Z,8.50
2018-07-19T22:05:43.320Z,7.03
2018-07-19T22:08:12.363Z,6.60
2018-07-19T22:10:41.322Z,6.80
2018-07-19T22:13:10.320Z,5.40
2018-07-19T22:15:39.295Z,6.13
2018-07-19T22:18:08.444Z,6.13
2018-07-19T22:20:37.703Z,7.53
2018-07-19T22:23:06.702Z,10.27
2018-07-19T22:25:35.758Z,7.23
2018-07-19T22:28:04.915Z,6.20
2018-07-19T22:30:33.915Z,7.50
2018-07-19T22:33:02.860Z,7.83
2018-07-19T22:35:31.894Z,10.83
2018-07-19T22:38:01.009Z,10.50
2018-07-19T22:40:29.950Z,8.83
2018-07-19T22:42:58.940Z,5.83
2018-07-19T22:45:28.001Z,8.10
2018-07-19T22:47:56.935Z,10.63
2018-07-19T22:50:26.008Z,6.80
2018-07-19T22:52:54.999Z,9.80
2018-07-19T22:55:23.969Z,10.70
2018-07-19T22:57:52.904Z,7.30
2018-07-19T23:00:21.905Z,6.07
2018-07-19T23:02:50.862Z,8.27
2018-07-19T23:05:19.859Z,8.33
2018-07-19T23:07:48.839Z,7.07
2018-07-19T23:10:17.821Z,6.60
2018-07-19T23:12:46.751Z,10.23
2018-07-19T23:15:15.771Z,6.20
2018-07-19T23:17:44.818Z,6.40
2018-07-19T23:20:13.543Z,7.17
2018-07-19T23:22:47.927Z,6.87
2018-07-19T23:25:16.890Z,9.50
2018-07-19T23:27:45.843Z,6.37
2018-07-19T23:30:14.833Z,6.13
2018-07-19T23:32:43.826Z,7.30
2018-07-19T23:35:12.859Z,7.50
2018-07-19T23:37:43.254Z,8.50
2018-07-19T23:40:15.919Z,6.40
2018-07-19T23:42:54.864Z,6.27
2018-07-19T23:45:27.091Z,6.10
2018-07-19T23:47:56.321Z,5.03
2018-07-19T23:50:25.305Z,5.60
2018-07-19T23:52:54.255Z,7.00
2018-07-19T23:55:23.313Z,5.97
2018-07-19T23:57:52.649Z,7.53
